Archival Weather

Prince Abdulmajeed Bin Abdula

Prince Abdulmajeed Bin Abdula, Saudi Arabia (OEAO)

Report from: Monday, May 23, 2022 5:00 AM UTC
Current time: Tuesday, August 16, 2022 8:05 AM UTC

Current weather
Weather history
Weather forecast

Temperature27.0°C (80.6°F)
Heat index26.3°C (79.4°F)
Dew point1.0°C (33.8°F)
Winds 14 kts (7.2 m/s, 16.1 mph) North (360°)
Clouds Sky clear
Altimeter29.88 in.Hg (1012 mB)
Relative humidity18 %
Density altitude1,529 ft. (466 m)
Remarks Ceiling and visibility OK
No significant changes expected in the next two hours
Flight conditions Visual Meteorological Conditions
Raw dataOEAO 230500Z 36014KT CAVOK 27/01 Q1012 NOSIG
An error has occurred. This application may no longer respond until reloaded. Reload 🗙